Time;durP1;ratioP1;P1;durP2;ratioP2;P2;SDS_P1;SDS_P2;PMS_P1;PMS_P2;Temp;Humidity;BMP_temperature;BMP_pressure;BME280_temperature;BME280_humidity;BME280_pressure;Samples;Min_cycle;Max_cycle;Signal;HPM_P1;HPM_P2
2021/05/20 00:00:20;;;;;;;1.90;1.02;;;;;;;;;;4922974;28;20063;-76
2021/05/20 00:02:47;;;;;;;1.65;1.10;;;;;;;;;;4929906;28;20068;-76
2021/05/20 00:05:16;;;;;;;1.58;1.20;;;;;;;;;;4934833;28;20055;-76
2021/05/20 00:07:43;;;;;;;2.60;1.20;;;;;;;;;;4925233;28;20040;-75
2021/05/20 00:10:09;;;;;;;1.55;1.10;;;;;;;;;;4908423;28;20063;-77
2021/05/20 00:12:36;;;;;;;1.33;1.00;;;;;;;;;;4911547;29;20064;-77
2021/05/20 00:15:04;;;;;;;2.03;1.25;;;;;;;;;;4926061;28;20522;-77
2021/05/20 00:17:30;;;;;;;1.65;1.10;;;;;;;;;;4930472;28;20063;-78
2021/05/20 00:19:56;;;;;;;1.70;1.20;;;;;;;;;;4920432;28;20059;-79
2021/05/20 00:22:23;;;;;;;3.28;1.30;;;;;;;;;;4926101;28;20174;-78
2021/05/20 00:24:49;;;;;;;2.00;1.10;;;;;;;;;;4915294;28;20071;-78
2021/05/20 00:27:16;;;;;;;1.92;1.40;;;;;;;;;;4923746;28;21692;-77
2021/05/20 00:29:43;;;;;;;1.55;1.20;;;;;;;;;;4925480;28;20067;-77
2021/05/20 00:32:09;;;;;;;2.10;1.30;;;;;;;;;;4924115;28;20067;-77
2021/05/20 00:34:36;;;;;;;2.22;1.23;;;;;;;;;;4928026;28;20056;-77
2021/05/20 00:37:02;;;;;;;2.45;1.30;;;;;;;;;;4938262;28;20731;-79
2021/05/20 00:39:29;;;;;;;1.90;1.10;;;;;;;;;;4926701;28;20090;-78
2021/05/20 00:41:55;;;;;;;1.60;1.25;;;;;;;;;;4926644;28;20547;-79
2021/05/20 00:44:22;;;;;;;2.35;1.23;;;;;;;;;;4924712;28;21354;-78
2021/05/20 00:46:48;;;;;;;2.30;1.30;;;;;;;;;;4940601;28;20059;-78
2021/05/20 00:49:14;;;;;;;2.10;1.30;;;;;;;;;;4929569;28;20064;-78
2021/05/20 00:51:43;;;;;;;1.73;1.20;;;;;;;;;;4924863;28;20060;-75
2021/05/20 00:54:09;;;;;;;1.38;1.05;;;;;;;;;;4938606;28;20056;-76
2021/05/20 00:56:40;;;;;;;2.30;1.35;;;;;;;;;;4922687;28;20056;-76
2021/05/20 00:59:06;;;;;;;1.80;1.20;;;;;;;;;;4924215;28;20071;-76
2021/05/20 01:01:33;;;;;;;2.25;1.20;;;;;;;;;;4923604;28;20067;-77
2021/05/20 01:04:00;;;;;;;2.67;1.30;;;;;;;;;;4921024;28;20508;-76
2021/05/20 01:06:26;;;;;;;1.83;1.30;;;;;;;;;;4923927;28;20052;-77
2021/05/20 01:08:56;;;;;;;2.00;1.30;;;;;;;;;;4924774;28;20126;-77
2021/05/20 01:11:23;;;;;;;2.80;1.40;;;;;;;;;;4923292;28;21090;-77
2021/05/20 01:13:49;;;;;;;2.00;1.40;;;;;;;;;;4923185;28;20528;-77
2021/05/20 01:16:15;;;;;;;1.75;1.33;;;;;;;;;;4923253;28;20059;-77
2021/05/20 01:18:42;;;;;;;1.73;1.10;;;;;;;;;;4921749;28;20138;-77
2021/05/20 01:21:08;;;;;;;2.78;1.27;;;;;;;;;;4922819;28;20579;-77
2021/05/20 01:23:35;;;;;;;1.88;1.27;;;;;;;;;;4924292;28;20079;-78
2021/05/20 01:26:02;;;;;;;1.80;1.20;;;;;;;;;;4935792;28;20882;-78
2021/05/20 01:28:30;;;;;;;2.50;1.30;;;;;;;;;;4919806;28;20039;-77
2021/05/20 01:30:57;;;;;;;2.70;1.25;;;;;;;;;;4937304;28;20067;-79
2021/05/20 01:33:23;;;;;;;2.13;1.48;;;;;;;;;;4923455;28;20110;-78
2021/05/20 01:35:50;;;;;;;2.17;1.55;;;;;;;;;;4918654;28;20064;-79
2021/05/20 01:40:54;;;;;;;1.67;1.20;;;;;;;;;;4918474;28;20062;-76
2021/05/20 01:43:21;;;;;;;2.55;1.13;;;;;;;;;;4921416;28;20070;-76
2021/05/20 01:46:06;;;;;;;2.65;1.30;;;;;;;;;;4921141;28;20131;-77
2021/05/20 01:48:37;;;;;;;1.90;1.42;;;;;;;;;;4920458;28;20064;-76
2021/05/20 01:51:06;;;;;;;1.67;1.20;;;;;;;;;;4940368;28;20059;-76
2021/05/20 01:53:33;;;;;;;1.73;1.20;;;;;;;;;;4942180;28;20130;-76
2021/05/20 01:56:00;;;;;;;2.50;1.40;;;;;;;;;;4934711;28;20064;-76
2021/05/20 01:58:26;;;;;;;1.60;1.35;;;;;;;;;;4929490;28;20059;-76
2021/05/20 02:00:53;;;;;;;2.10;1.30;;;;;;;;;;4929368;28;21077;-78
2021/05/20 02:03:19;;;;;;;1.88;1.20;;;;;;;;;;4922549;28;20133;-78
2021/05/20 02:05:46;;;;;;;1.90;1.40;;;;;;;;;;4917182;28;20080;-77
2021/05/20 02:08:13;;;;;;;2.28;1.40;;;;;;;;;;4930681;28;20071;-78
2021/05/20 02:10:39;;;;;;;2.30;1.25;;;;;;;;;;4925299;28;20126;-78
2021/05/20 02:13:06;;;;;;;1.67;1.17;;;;;;;;;;4923074;28;20122;-78
2021/05/20 02:15:33;;;;;;;1.55;1.20;;;;;;;;;;4930784;28;20668;-79
2021/05/20 02:18:00;;;;;;;1.90;1.35;;;;;;;;;;4922024;28;20063;-79
2021/05/20 02:20:26;;;;;;;2.03;1.38;;;;;;;;;;4922727;28;20047;-78
2021/05/20 02:22:53;;;;;;;3.13;1.50;;;;;;;;;;4931014;28;20062;-79
2021/05/20 02:25:19;;;;;;;1.80;1.25;;;;;;;;;;4939721;28;20066;-79
2021/05/20 02:27:46;;;;;;;2.13;1.40;;;;;;;;;;4924270;28;20035;-78
2021/05/20 02:30:15;;;;;;;2.22;1.42;;;;;;;;;;4940266;28;20055;-78
2021/05/20 02:32:41;;;;;;;1.50;1.20;;;;;;;;;;4918683;28;20071;-78
2021/05/20 02:35:08;;;;;;;1.88;1.30;;;;;;;;;;4923848;28;20527;-77
2021/05/20 02:37:35;;;;;;;2.35;1.60;;;;;;;;;;4924254;28;20047;-77
2021/05/20 02:40:01;;;;;;;2.08;1.23;;;;;;;;;;4918910;28;20562;-78
2021/05/20 02:42:28;;;;;;;3.15;1.50;;;;;;;;;;4924736;28;20075;-78
2021/05/20 02:44:54;;;;;;;3.17;1.30;;;;;;;;;;4921656;28;20075;-78
2021/05/20 02:47:20;;;;;;;1.60;1.20;;;;;;;;;;4922299;28;20098;-78
2021/05/20 02:49:47;;;;;;;2.08;1.40;;;;;;;;;;4921454;28;20142;-76
2021/05/20 02:52:13;;;;;;;1.80;1.25;;;;;;;;;;4922526;28;20137;-77
2021/05/20 02:54:40;;;;;;;1.95;1.42;;;;;;;;;;4937117;28;20059;-77
2021/05/20 02:57:07;;;;;;;2.75;1.60;;;;;;;;;;4923718;28;20043;-77
2021/05/20 02:59:35;;;;;;;2.65;1.40;;;;;;;;;;4915116;29;20039;-77
2021/05/20 03:02:06;;;;;;;2.22;1.45;;;;;;;;;;4937460;28;20063;-76
2021/05/20 03:04:33;;;;;;;;;;;;;;;;;;4920226;28;20114;-78
2021/05/20 03:06:59;;;;;;;2.13;1.45;;;;;;;;;;4913562;28;20001;-78
2021/05/20 03:09:26;;;;;;;2.72;1.50;;;;;;;;;;4942150;28;20122;-78
2021/05/20 03:11:56;;;;;;;1.92;1.50;;;;;;;;;;4929609;28;20036;-77
2021/05/20 03:14:23;;;;;;;2.67;1.50;;;;;;;;;;4934119;28;21479;-77
2021/05/20 03:16:49;;;;;;;2.15;1.42;;;;;;;;;;4923697;28;20068;-78
2021/05/20 03:19:16;;;;;;;4.22;1.50;;;;;;;;;;4937127;28;20425;-77
2021/05/20 03:21:43;;;;;;;1.88;1.30;;;;;;;;;;4920101;28;20051;-77
2021/05/20 03:24:09;;;;;;;2.33;1.40;;;;;;;;;;4922258;28;20071;-77
2021/05/20 03:26:36;;;;;;;2.40;1.65;;;;;;;;;;4935339;28;20056;-78
2021/05/20 03:29:02;;;;;;;2.20;1.50;;;;;;;;;;4919750;28;20067;-77
2021/05/20 03:31:29;;;;;;;2.13;1.60;;;;;;;;;;4939413;28;20067;-78
2021/05/20 03:33:56;;;;;;;2.13;1.40;;;;;;;;;;4932832;28;20067;-78
2021/05/20 03:36:22;;;;;;;1.77;1.45;;;;;;;;;;4921268;28;20044;-77
2021/05/20 03:38:49;;;;;;;2.22;1.60;;;;;;;;;;4925750;28;20052;-77
2021/05/20 03:41:15;;;;;;;2.85;1.60;;;;;;;;;;4938238;28;20132;-78
2021/05/20 03:43:42;;;;;;;2.25;1.40;;;;;;;;;;4941460;28;20058;-77
2021/05/20 03:46:08;;;;;;;1.80;1.30;;;;;;;;;;4927985;28;20114;-78
2021/05/20 03:48:35;;;;;;;1.90;1.25;;;;;;;;;;4953683;28;20078;-78
2021/05/20 03:51:01;;;;;;;2.83;1.30;;;;;;;;;;4937763;28;20111;-77
2021/05/20 03:53:32;;;;;;;2.42;1.27;;;;;;;;;;4925495;28;20055;-76
2021/05/20 03:55:59;;;;;;;2.30;1.50;;;;;;;;;;4926243;28;20095;-77
2021/05/20 03:58:26;;;;;;;2.50;1.50;;;;;;;;;;4925717;28;20059;-77
2021/05/20 04:00:53;;;;;;;2.00;1.40;;;;;;;;;;4928741;28;20035;-76
2021/05/20 04:03:32;;;;;;;2.40;1.40;;;;;;;;;;4926449;28;20063;-77
2021/05/20 04:06:03;;;;;;;2.20;1.73;;;;;;;;;;4924554;28;20126;-79
2021/05/20 04:08:30;;;;;;;2.00;1.40;;;;;;;;;;4925297;28;20119;-78
2021/05/20 04:10:56;;;;;;;2.38;1.40;;;;;;;;;;4917894;28;20122;-78
2021/05/20 04:13:35;;;;;;;1.73;1.35;;;;;;;;;;4905999;28;20142;-78
2021/05/20 04:16:02;;;;;;;3.15;1.80;;;;;;;;;;4929634;28;20122;-78
2021/05/20 04:18:29;;;;;;;2.38;1.33;;;;;;;;;;4925903;28;20059;-77
2021/05/20 04:20:56;;;;;;;1.75;1.38;;;;;;;;;;4940712;28;20083;-78
2021/05/20 04:23:23;;;;;;;2.33;1.45;;;;;;;;;;4907033;29;20130;-78
2021/05/20 04:25:49;;;;;;;1.75;1.30;;;;;;;;;;4923805;28;20158;-78
2021/05/20 04:28:16;;;;;;;2.33;1.40;;;;;;;;;;4922841;28;20106;-77
2021/05/20 04:30:43;;;;;;;1.70;1.38;;;;;;;;;;4919433;28;20063;-78
2021/05/20 04:33:09;;;;;;;2.33;1.40;;;;;;;;;;4912324;28;20032;-77
2021/05/20 04:35:36;;;;;;;2.47;1.40;;;;;;;;;;4923526;28;20133;-77
2021/05/20 04:38:04;;;;;;;2.33;1.38;;;;;;;;;;4917090;28;20527;-78
2021/05/20 04:40:31;;;;;;;1.85;1.30;;;;;;;;;;4910562;28;20070;-77
2021/05/20 04:42:58;;;;;;;2.22;1.40;;;;;;;;;;4913149;28;20075;-78
2021/05/20 04:45:24;;;;;;;1.95;1.40;;;;;;;;;;4940917;28;20417;-77
2021/05/20 04:47:50;;;;;;;2.15;1.42;;;;;;;;;;4928288;28;20563;-78
2021/05/20 04:50:18;;;;;;;2.88;1.88;;;;;;;;;;4906797;28;20059;-79
2021/05/20 04:52:44;;;;;;;2.00;1.38;;;;;;;;;;4926312;28;20141;-77
2021/05/20 04:55:12;;;;;;;2.42;1.33;;;;;;;;;;4919390;28;20056;-79
2021/05/20 04:57:39;;;;;;;2.35;1.45;;;;;;;;;;4921828;28;20512;-79
2021/05/20 05:00:06;;;;;;;2.20;1.50;;;;;;;;;;4932975;28;20448;-79
2021/05/20 05:02:33;;;;;;;3.38;1.30;;;;;;;;;;4938515;28;20455;-79
2021/05/20 05:04:59;;;;;;;5.13;1.30;;;;;;;;;;4922391;28;20087;-80
2021/05/20 05:07:26;;;;;;;2.45;1.20;;;;;;;;;;4914081;29;20070;-77
2021/05/20 05:09:52;;;;;;;2.08;1.10;;;;;;;;;;4922306;28;20066;-79
2021/05/20 05:12:19;;;;;;;4.13;1.30;;;;;;;;;;4921147;28;20059;-79
2021/05/20 05:14:46;;;;;;;5.63;1.58;;;;;;;;;;4921466;28;20119;-78
2021/05/20 05:17:13;;;;;;;4.00;1.48;;;;;;;;;;4902321;28;20507;-81
2021/05/20 05:19:40;;;;;;;1.90;1.13;;;;;;;;;;4935993;28;20716;-79
2021/05/20 05:22:07;;;;;;;1.85;1.15;;;;;;;;;;4942319;28;20047;-79
2021/05/20 05:24:33;;;;;;;2.05;1.33;;;;;;;;;;4918745;28;20503;-79
2021/05/20 05:27:00;;;;;;;3.42;1.30;;;;;;;;;;4924997;28;20162;-79
2021/05/20 05:29:28;;;;;;;4.13;1.35;;;;;;;;;;4923766;28;20063;-78
2021/05/20 05:31:54;;;;;;;2.28;1.20;;;;;;;;;;4938015;28;20094;-77
2021/05/20 05:34:24;;;;;;;3.88;1.23;;;;;;;;;;4925570;28;20119;-77
2021/05/20 05:36:50;;;;;;;3.80;1.10;;;;;;;;;;4928724;28;20034;-78
2021/05/20 05:39:17;;;;;;;3.10;1.40;;;;;;;;;;4938797;28;20067;-78
2021/05/20 05:41:43;;;;;;;3.50;1.52;;;;;;;;;;4927328;28;20126;-78
2021/05/20 05:44:12;;;;;;;3.17;1.20;;;;;;;;;;4919584;28;20504;-77
2021/05/20 05:46:39;;;;;;;1.85;1.10;;;;;;;;;;4933336;28;20031;-77
2021/05/20 05:49:22;;;;;;;4.30;1.15;;;;;;;;;;4923472;28;20071;-78
2021/05/20 05:51:55;;;;;;;4.18;1.35;;;;;;;;;;4921884;28;20036;-77
2021/05/20 05:54:22;;;;;;;3.15;0.95;;;;;;;;;;4935783;28;20036;-80
2021/05/20 05:56:48;;;;;;;2.08;1.05;;;;;;;;;;4925763;28;20082;-77
2021/05/20 05:59:15;;;;;;;2.05;1.10;;;;;;;;;;4934537;28;20040;-77
2021/05/20 06:01:42;;;;;;;2.60;1.60;;;;;;;;;;4948890;28;20518;-83
2021/05/20 06:04:09;;;;;;;3.92;1.13;;;;;;;;;;4922634;28;20146;-79
2021/05/20 06:06:36;;;;;;;8.48;1.25;;;;;;;;;;4905459;28;20055;-78
2021/05/20 06:09:05;;;;;;;2.20;1.00;;;;;;;;;;4937819;28;20059;-78
2021/05/20 06:11:33;;;;;;;2.17;1.25;;;;;;;;;;4931603;28;20211;-77
2021/05/20 06:14:03;;;;;;;2.75;1.20;;;;;;;;;;4928345;28;20065;-78
2021/05/20 06:16:29;;;;;;;2.53;1.05;;;;;;;;;;4923769;28;20063;-75
2021/05/20 06:18:59;;;;;;;2.13;1.20;;;;;;;;;;4923349;28;20056;-78
2021/05/20 06:21:25;;;;;;;2.28;1.10;;;;;;;;;;4946425;28;20271;-77
2021/05/20 06:23:52;;;;;;;2.67;1.23;;;;;;;;;;4926135;28;20127;-77
2021/05/20 06:26:18;;;;;;;3.65;1.13;;;;;;;;;;4921674;28;20075;-78
2021/05/20 06:28:45;;;;;;;6.05;1.00;;;;;;;;;;4914030;28;20064;-78
2021/05/20 06:31:11;;;;;;;2.78;0.98;;;;;;;;;;4929117;28;20110;-78
2021/05/20 06:33:38;;;;;;;2.20;1.20;;;;;;;;;;4920947;28;20067;-78
2021/05/20 06:36:04;;;;;;;3.03;1.20;;;;;;;;;;4920843;28;20075;-78
2021/05/20 06:38:31;;;;;;;4.05;1.10;;;;;;;;;;4926144;28;20071;-77
2021/05/20 06:40:59;;;;;;;3.20;1.00;;;;;;;;;;4923328;28;20056;-78
2021/05/20 06:43:25;;;;;;;2.80;1.00;;;;;;;;;;4919663;28;20280;-79
2021/05/20 06:45:52;;;;;;;2.00;1.00;;;;;;;;;;4932607;28;20056;-78
2021/05/20 06:48:18;;;;;;;2.30;1.20;;;;;;;;;;4918414;28;20525;-79
2021/05/20 06:50:44;;;;;;;2.65;1.20;;;;;;;;;;4930671;28;20420;-79
2021/05/20 06:53:11;;;;;;;2.80;1.00;;;;;;;;;;4923838;28;20094;-77
2021/05/20 06:55:38;;;;;;;2.08;1.05;;;;;;;;;;4936644;28;20032;-77
2021/05/20 07:00:31;;;;;;;2.90;1.10;;;;;;;;;;4920308;28;20059;-77
2021/05/20 07:02:57;;;;;;;2.67;1.00;;;;;;;;;;4935094;28;20068;-77
2021/05/20 07:05:24;;;;;;;7.03;1.00;;;;;;;;;;4924593;28;20138;-76
2021/05/20 07:07:51;;;;;;;2.35;1.10;;;;;;;;;;4918500;28;20063;-77
2021/05/20 07:10:17;;;;;;;2.20;0.93;;;;;;;;;;4936955;28;20161;-77
2021/05/20 07:12:44;;;;;;;2.97;1.02;;;;;;;;;;4919329;28;20127;-77
2021/05/20 07:15:11;;;;;;;3.03;0.88;;;;;;;;;;4936832;28;20078;-77
2021/05/20 07:17:37;;;;;;;3.08;1.08;;;;;;;;;;4925649;28;20138;-76
2021/05/20 07:20:05;;;;;;;3.30;0.90;;;;;;;;;;4939601;28;20067;-77
2021/05/20 07:22:32;;;;;;;1.92;1.00;;;;;;;;;;4938477;28;20128;-80
2021/05/20 07:25:04;;;;;;;3.92;0.98;;;;;;;;;;4926085;28;20075;-79
2021/05/20 07:27:32;;;;;;;1.98;0.93;;;;;;;;;;4943381;28;20055;-80
2021/05/20 07:29:59;;;;;;;6.45;1.10;;;;;;;;;;4908322;28;20043;-80
2021/05/20 07:32:26;;;;;;;3.03;1.10;;;;;;;;;;4923535;28;20067;-80
2021/05/20 07:34:53;;;;;;;3.30;1.20;;;;;;;;;;4921027;28;20051;-80
2021/05/20 07:37:19;;;;;;;3.13;1.00;;;;;;;;;;4925240;28;20059;-80
2021/05/20 07:39:46;;;;;;;1.55;0.82;;;;;;;;;;4927680;28;20068;-79
2021/05/20 07:42:12;;;;;;;3.60;1.13;;;;;;;;;;4928283;28;20138;-79
2021/05/20 07:44:39;;;;;;;2.63;1.13;;;;;;;;;;4951962;28;20071;-80
2021/05/20 07:47:06;;;;;;;1.75;1.10;;;;;;;;;;4922840;28;20496;-80
2021/05/20 07:49:36;;;;;;;2.00;0.90;;;;;;;;;;4942201;28;20067;-79
2021/05/20 07:52:04;;;;;;;5.65;1.13;;;;;;;;;;4930554;28;20062;-79
2021/05/20 07:54:32;;;;;;;2.60;1.00;;;;;;;;;;4909055;29;20376;-79
2021/05/20 07:56:58;;;;;;;1.60;0.95;;;;;;;;;;4923818;28;20040;-79
2021/05/20 07:59:25;;;;;;;2.58;0.90;;;;;;;;;;4924468;28;20095;-79
2021/05/20 08:02:00;;;;;;;3.83;1.13;;;;;;;;;;4941548;28;20071;-79
2021/05/20 08:04:29;;;;;;;4.18;1.23;;;;;;;;;;4931953;28;21772;-81
2021/05/20 08:07:08;;;;;;;2.90;1.05;;;;;;;;;;4936295;28;20083;-81
2021/05/20 08:09:37;;;;;;;4.50;1.10;;;;;;;;;;4924830;28;20051;-81
2021/05/20 08:12:03;;;;;;;2.38;1.10;;;;;;;;;;4930139;28;20067;-82
2021/05/20 08:14:30;;;;;;;6.07;1.17;;;;;;;;;;4926788;28;20106;-77
2021/05/20 08:16:56;;;;;;;3.63;1.15;;;;;;;;;;4937258;28;20064;-76
2021/05/20 08:19:23;;;;;;;3.28;1.17;;;;;;;;;;4942192;28;20067;-77
2021/05/20 08:21:49;;;;;;;5.90;1.80;;;;;;;;;;4935855;28;20103;-76
2021/05/20 08:24:15;;;;;;;3.45;1.20;;;;;;;;;;4923764;28;20150;-75
2021/05/20 08:26:42;;;;;;;4.90;1.38;;;;;;;;;;4916651;28;20183;-76
2021/05/20 08:29:08;;;;;;;5.07;1.63;;;;;;;;;;4917304;28;20508;-77
2021/05/20 08:31:35;;;;;;;2.10;1.08;;;;;;;;;;4923689;28;20071;-77
2021/05/20 08:34:02;;;;;;;6.18;1.20;;;;;;;;;;4924823;28;20059;-77
2021/05/20 08:36:28;;;;;;;2.65;1.17;;;;;;;;;;4924704;28;20185;-76
2021/05/20 08:38:55;;;;;;;6.57;1.38;;;;;;;;;;4927976;28;20645;-77
2021/05/20 08:41:21;;;;;;;4.25;1.20;;;;;;;;;;4929567;28;20063;-77
2021/05/20 08:43:48;;;;;;;3.63;1.40;;;;;;;;;;4932994;28;20118;-77
2021/05/20 08:46:21;;;;;;;4.18;1.25;;;;;;;;;;4936305;28;20036;-77
2021/05/20 08:48:48;;;;;;;3.88;1.15;;;;;;;;;;4945506;28;20123;-76
2021/05/20 08:51:14;;;;;;;4.65;1.40;;;;;;;;;;4923767;28;20086;-77
2021/05/20 08:53:40;;;;;;;4.80;1.13;;;;;;;;;;4926406;28;20099;-77
2021/05/20 08:56:10;;;;;;;4.57;1.27;;;;;;;;;;4931068;28;20091;-76
2021/05/20 08:58:36;;;;;;;3.15;1.10;;;;;;;;;;4921913;29;20131;-77
2021/05/20 09:01:03;;;;;;;2.55;1.05;;;;;;;;;;4933408;28;20043;-77
2021/05/20 09:03:29;;;;;;;6.03;1.50;;;;;;;;;;4940623;28;20444;-77
2021/05/20 09:06:01;;;;;;;3.28;1.13;;;;;;;;;;4942063;28;20076;-77
2021/05/20 09:08:33;;;;;;;3.47;1.05;;;;;;;;;;4919794;28;20051;-77
2021/05/20 09:11:01;;;;;;;5.85;1.45;;;;;;;;;;4933206;28;20122;-77
2021/05/20 09:13:34;;;;;;;3.67;1.05;;;;;;;;;;4928959;28;20463;-77
2021/05/20 09:16:10;;;;;;;5.38;1.10;;;;;;;;;;4925399;28;20079;-78
2021/05/20 09:18:39;;;;;;;3.83;1.10;;;;;;;;;;4921616;28;20126;-77
2021/05/20 09:21:06;;;;;;;3.75;1.17;;;;;;;;;;4930136;28;20067;-78
2021/05/20 09:23:33;;;;;;;4.60;1.42;;;;;;;;;;4946463;28;20511;-77
2021/05/20 09:26:17;;;;;;;5.00;1.13;;;;;;;;;;4925414;28;20067;-77
2021/05/20 09:28:47;;;;;;;5.60;1.17;;;;;;;;;;4933974;28;20095;-77
2021/05/20 09:31:14;;;;;;;3.38;1.17;;;;;;;;;;4943275;28;20172;-77
2021/05/20 09:33:54;;;;;;;4.00;1.20;;;;;;;;;;4921614;28;20075;-77
2021/05/20 09:36:21;;;;;;;3.53;1.10;;;;;;;;;;4925064;28;20607;-77
2021/05/20 09:38:48;;;;;;;2.75;1.10;;;;;;;;;;4910306;28;20068;-77
2021/05/20 09:41:19;;;;;;;4.63;1.23;;;;;;;;;;4917624;28;20118;-77
2021/05/20 09:43:46;;;;;;;4.28;1.17;;;;;;;;;;4935314;28;20068;-77
2021/05/20 09:46:14;;;;;;;3.67;1.20;;;;;;;;;;4922585;28;20072;-76
2021/05/20 09:48:42;;;;;;;3.13;1.10;;;;;;;;;;4953501;28;20067;-77
2021/05/20 09:51:22;;;;;;;3.05;1.10;;;;;;;;;;4943043;28;20031;-76
2021/05/20 09:53:52;;;;;;;3.55;1.20;;;;;;;;;;4908773;29;20055;-78
2021/05/20 09:56:40;;;;;;;3.17;0.80;;;;;;;;;;4920204;28;20101;-75
2021/05/20 09:59:08;;;;;;;2.65;1.00;;;;;;;;;;4922674;28;20044;-76
2021/05/20 10:01:36;;;;;;;2.17;1.10;;;;;;;;;;4931101;28;20056;-77
2021/05/20 10:04:03;;;;;;;3.17;0.93;;;;;;;;;;4946095;28;20085;-77
2021/05/20 10:06:40;;;;;;;1.27;0.70;;;;;;;;;;4937583;28;20048;-77
2021/05/20 10:09:08;;;;;;;3.30;0.90;;;;;;;;;;4931729;28;20059;-77
2021/05/20 10:11:35;;;;;;;2.45;1.05;;;;;;;;;;4916723;28;20071;-77
2021/05/20 10:14:04;;;;;;;4.00;1.02;;;;;;;;;;4906761;28;20574;-76
2021/05/20 10:16:31;;;;;;;6.55;1.17;;;;;;;;;;4916525;28;20496;-76
2021/05/20 10:18:58;;;;;;;2.67;0.95;;;;;;;;;;4919528;28;20119;-76
2021/05/20 10:21:25;;;;;;;2.10;0.82;;;;;;;;;;4919422;28;20131;-77
2021/05/20 10:23:52;;;;;;;3.80;1.02;;;;;;;;;;4922971;28;20075;-76
2021/05/20 10:26:19;;;;;;;4.35;1.40;;;;;;;;;;4902624;28;20114;-78
2021/05/20 10:28:46;;;;;;;2.17;0.90;;;;;;;;;;4917698;28;20039;-76
2021/05/20 10:31:13;;;;;;;4.03;1.00;;;;;;;;;;4919015;28;20103;-77
2021/05/20 10:33:40;;;;;;;3.40;0.80;;;;;;;;;;4921320;28;20138;-76
2021/05/20 10:36:07;;;;;;;1.77;0.85;;;;;;;;;;4934999;28;20063;-77
2021/05/20 10:38:33;;;;;;;3.15;1.00;;;;;;;;;;4938584;28;20055;-76
2021/05/20 10:41:19;;;;;;;2.45;0.75;;;;;;;;;;4921314;28;20576;-78
2021/05/20 10:43:46;;;;;;;2.67;0.90;;;;;;;;;;4938376;28;20114;-77
2021/05/20 10:46:14;;;;;;;2.72;0.90;;;;;;;;;;4922724;28;20095;-77
2021/05/20 10:48:57;;;;;;;2.03;0.90;;;;;;;;;;4931341;28;20040;-76
2021/05/20 10:51:25;;;;;;;2.00;0.93;;;;;;;;;;4926415;28;20584;-76
2021/05/20 10:53:53;;;;;;;2.90;1.05;;;;;;;;;;4931944;28;20071;-76
2021/05/20 10:56:22;;;;;;;3.00;0.98;;;;;;;;;;4933357;28;20582;-76
2021/05/20 10:58:48;;;;;;;2.53;0.82;;;;;;;;;;4938988;28;20040;-76
2021/05/20 11:01:21;;;;;;;2.08;1.00;;;;;;;;;;4919480;28;20117;-77
2021/05/20 11:03:47;;;;;;;2.28;0.80;;;;;;;;;;4909299;29;20457;-76
2021/05/20 11:06:14;;;;;;;3.50;0.93;;;;;;;;;;4923288;28;20098;-76
2021/05/20 11:08:43;;;;;;;3.22;1.02;;;;;;;;;;4928280;28;20063;-76
2021/05/20 11:11:28;;;;;;;2.08;0.80;;;;;;;;;;4931833;28;20528;-76
2021/05/20 11:13:56;;;;;;;2.75;0.73;;;;;;;;;;4933471;28;20052;-75
2021/05/20 11:16:28;;;;;;;2.45;0.80;;;;;;;;;;4940624;28;20040;-76
2021/05/20 11:18:54;;;;;;;2.45;0.80;;;;;;;;;;4934392;28;20060;-77
2021/05/20 11:21:21;;;;;;;4.45;1.02;;;;;;;;;;4919517;28;20575;-77
2021/05/20 11:23:47;;;;;;;2.35;0.90;;;;;;;;;;4905265;28;20126;-77
2021/05/20 11:26:15;;;;;;;3.40;1.10;;;;;;;;;;4921421;28;20083;-77
2021/05/20 11:28:43;;;;;;;4.22;0.80;;;;;;;;;;4920753;28;20070;-77
2021/05/20 11:31:09;;;;;;;3.42;1.00;;;;;;;;;;4934999;28;20063;-78
2021/05/20 11:33:48;;;;;;;2.72;0.93;;;;;;;;;;4921176;28;20976;-80
2021/05/20 11:36:15;;;;;;;6.03;1.20;;;;;;;;;;4918758;28;20158;-78
2021/05/20 11:39:01;;;;;;;2.35;0.88;;;;;;;;;;4918283;28;20119;-78
2021/05/20 11:41:29;;;;;;;2.30;0.70;;;;;;;;;;4919305;28;20067;-78
2021/05/20 11:44:11;;;;;;;3.67;0.95;;;;;;;;;;4921900;28;20063;-78
2021/05/20 11:46:38;;;;;;;2.90;0.82;;;;;;;;;;4932041;28;20317;-78
2021/05/20 11:49:18;;;;;;;3.70;0.70;;;;;;;;;;4919370;28;20059;-78
2021/05/20 11:51:53;;;;;;;1.77;0.80;;;;;;;;;;4921114;28;20089;-78
2021/05/20 11:54:21;;;;;;;5.20;1.17;;;;;;;;;;4926358;28;20078;-78
2021/05/20 11:56:50;;;;;;;4.30;0.93;;;;;;;;;;4918821;28;20051;-78
2021/05/20 11:59:41;;;;;;;2.92;0.73;;;;;;;;;;4904495;28;20067;-80
2021/05/20 12:02:09;;;;;;;3.45;0.95;;;;;;;;;;4923069;28;20130;-78
2021/05/20 12:04:36;;;;;;;5.65;1.30;;;;;;;;;;4905332;29;20741;-79
2021/05/20 12:07:04;;;;;;;5.50;0.80;;;;;;;;;;4934090;28;20068;-78
2021/05/20 12:09:31;;;;;;;4.22;1.10;;;;;;;;;;4903746;28;20044;-79
2021/05/20 12:11:57;;;;;;;6.18;1.25;;;;;;;;;;4925067;28;20063;-79
2021/05/20 12:14:25;;;;;;;3.22;0.80;;;;;;;;;;4935429;28;20594;-79
2021/05/20 12:17:09;;;;;;;3.42;0.95;;;;;;;;;;4925320;28;20107;-81
2021/05/20 12:19:37;;;;;;;4.05;1.05;;;;;;;;;;4919679;28;20039;-78
2021/05/20 12:22:05;;;;;;;3.90;0.70;;;;;;;;;;4921016;28;20381;-78
2021/05/20 12:24:32;;;;;;;8.13;1.08;;;;;;;;;;4924520;28;20139;-79
2021/05/20 12:27:09;;;;;;;3.83;0.98;;;;;;;;;;4920882;28;20086;-78
2021/05/20 12:29:37;;;;;;;3.13;0.90;;;;;;;;;;4914418;28;20059;-78
2021/05/20 12:32:04;;;;;;;3.30;0.77;;;;;;;;;;4922358;28;20074;-78
2021/05/20 12:34:30;;;;;;;4.00;0.90;;;;;;;;;;4926525;28;20047;-76
2021/05/20 12:37:04;;;;;;;4.85;0.95;;;;;;;;;;4905254;29;20067;-79
2021/05/20 12:39:30;;;;;;;2.55;0.90;;;;;;;;;;4920562;28;20075;-77
2021/05/20 12:41:58;;;;;;;2.83;0.90;;;;;;;;;;4937238;28;20526;-78
2021/05/20 12:44:24;;;;;;;2.58;0.90;;;;;;;;;;4937610;28;21427;-77
2021/05/20 12:46:51;;;;;;;3.38;0.80;;;;;;;;;;4936351;28;20028;-77
2021/05/20 12:49:21;;;;;;;2.50;0.88;;;;;;;;;;4922667;28;20780;-75
2021/05/20 12:51:58;;;;;;;2.22;0.90;;;;;;;;;;4922226;28;20075;-75
2021/05/20 12:54:28;;;;;;;4.22;0.82;;;;;;;;;;4920560;28;20410;-75
2021/05/20 12:57:08;;;;;;;3.70;0.90;;;;;;;;;;4940264;28;20048;-76
2021/05/20 12:59:38;;;;;;;1.15;0.60;;;;;;;;;;4916792;28;20116;-76
2021/05/20 13:02:08;;;;;;;2.63;0.80;;;;;;;;;;4927246;28;20074;-76
2021/05/20 13:04:37;;;;;;;5.05;1.02;;;;;;;;;;4931140;28;20130;-76
2021/05/20 13:07:07;;;;;;;2.42;0.85;;;;;;;;;;4941769;28;20075;-75
2021/05/20 13:09:37;;;;;;;3.17;0.85;;;;;;;;;;4922853;28;20048;-75
2021/05/20 13:12:10;;;;;;;2.90;0.77;;;;;;;;;;4938414;28;20055;-76
2021/05/20 13:14:47;;;;;;;2.03;0.90;;;;;;;;;;4922095;28;20115;-76
2021/05/20 13:17:42;;;;;;;2.60;1.00;;;;;;;;;;4922183;28;20610;-76
2021/05/20 13:23:23;;;;;;;2.70;0.80;;;;;;;;;;4898650;28;20094;-76
2021/05/20 13:25:50;;;;;;;2.05;0.70;;;;;;;;;;4926150;28;20063;-76
2021/05/20 13:28:18;;;;;;;2.00;0.90;;;;;;;;;;4925373;28;21001;-76
2021/05/20 13:30:53;;;;;;;3.35;0.85;;;;;;;;;;4922586;28;20502;-77
2021/05/20 13:33:26;;;;;;;2.55;0.80;;;;;;;;;;4902554;28;20946;-76
2021/05/20 13:35:53;;;;;;;4.18;0.80;;;;;;;;;;4924171;28;20055;-75
2021/05/20 13:38:20;;;;;;;4.97;0.98;;;;;;;;;;4915926;28;20062;-76
2021/05/20 13:40:48;;;;;;;2.10;0.90;;;;;;;;;;4919188;28;20118;-76
2021/05/20 13:43:15;;;;;;;2.08;0.70;;;;;;;;;;4918977;28;20063;-76
2021/05/20 13:45:41;;;;;;;2.00;0.85;;;;;;;;;;4923768;28;20639;-77
2021/05/20 13:48:08;;;;;;;3.13;1.02;;;;;;;;;;4921394;28;20110;-76
2021/05/20 13:50:34;;;;;;;2.38;0.90;;;;;;;;;;4927853;28;20133;-76
2021/05/20 13:53:01;;;;;;;2.40;1.00;;;;;;;;;;4934843;28;20043;-77
2021/05/20 13:55:27;;;;;;;1.73;0.70;;;;;;;;;;4931728;28;20103;-76
2021/05/20 13:57:55;;;;;;;2.80;0.80;;;;;;;;;;4927884;28;20556;-77
2021/05/20 14:02:49;;;;;;;2.67;0.80;;;;;;;;;;4942537;28;20067;-77
2021/05/20 14:05:16;;;;;;;1.90;0.70;;;;;;;;;;4922555;28;20139;-76
2021/05/20 14:07:42;;;;;;;1.50;0.80;;;;;;;;;;4921949;28;20123;-76
2021/05/20 14:10:09;;;;;;;2.88;0.93;;;;;;;;;;4928584;28;20032;-77
2021/05/20 14:12:36;;;;;;;2.28;0.70;;;;;;;;;;4933728;28;20042;-77
2021/05/20 14:15:03;;;;;;;2.58;0.70;;;;;;;;;;4918471;28;20043;-77
2021/05/20 14:17:30;;;;;;;2.65;0.90;;;;;;;;;;4947329;28;20039;-77
2021/05/20 14:20:02;;;;;;;3.80;0.80;;;;;;;;;;4924586;29;20039;-77
2021/05/20 14:22:32;;;;;;;7.22;1.02;;;;;;;;;;4922140;28;20035;-77
2021/05/20 14:24:58;;;;;;;2.22;0.65;;;;;;;;;;4935275;28;20055;-77
2021/05/20 14:27:28;;;;;;;4.65;1.00;;;;;;;;;;4920351;28;20043;-77
2021/05/20 14:29:55;;;;;;;5.32;1.13;;;;;;;;;;4924224;28;20086;-76
2021/05/20 14:32:23;;;;;;;4.63;1.70;;;;;;;;;;4906902;28;20611;-77
2021/05/20 14:34:51;;;;;;;2.10;0.93;;;;;;;;;;4919077;28;20127;-77
2021/05/20 14:37:19;;;;;;;2.75;0.82;;;;;;;;;;4935467;28;20468;-77
2021/05/20 14:39:46;;;;;;;3.58;1.10;;;;;;;;;;4921537;28;20043;-78
2021/05/20 14:42:13;;;;;;;3.05;0.73;;;;;;;;;;4917797;28;20143;-77
2021/05/20 14:44:39;;;;;;;3.40;0.70;;;;;;;;;;4920426;28;20071;-76
2021/05/20 14:47:06;;;;;;;1.80;0.77;;;;;;;;;;4921270;28;20573;-76
2021/05/20 14:49:40;;;;;;;5.72;0.90;;;;;;;;;;4938895;28;20072;-76
2021/05/20 14:52:20;;;;;;;3.10;0.80;;;;;;;;;;4922895;28;20077;-75
2021/05/20 14:55:05;;;;;;;3.65;0.90;;;;;;;;;;4922573;28;20607;-76
2021/05/20 15:06:07;;;;;;;3.55;0.95;;;;;;;;;;4923016;28;20056;-75
2021/05/20 15:08:35;;;;;;;2.03;0.70;;;;;;;;;;4921819;28;20126;-77